Time;durP1;ratioP1;P1;durP2;ratioP2;P2;SDS_P1;SDS_P2;PMS_P1;PMS_P2;Temp;Humidity;BMP_temperature;BMP_pressure;BME280_temperature;BME280_humidity;BME280_pressure;Samples;Min_cycle;Max_cycle;Signal;HPM_P1;HPM_P2
2022/01/07 00:01:13;;;;;;;;;13.75;8.50;;;;;;;;5010894;28;45120;-91
2022/01/07 00:03:38;;;;;;;;;14.00;12.33;;;;;;;;5004523;28;45723;-93
2022/01/07 00:06:03;;;;;;;;;14.00;12.50;;;;;;;;4993331;28;48027;-90
2022/01/07 00:08:29;;;;;;;;;13.33;11.67;;;;;;;;5004164;28;45725;-92
2022/01/07 00:10:54;;;;;;;;;14.00;11.50;;;;;;;;5011468;28;45320;-93
2022/01/07 00:13:20;;;;;;;;;6.75;6.75;;;;;;;;5011491;28;45010;-92
2022/01/07 00:15:45;;;;;;;;;13.25;11.75;;;;;;;;5011241;28;46983;-93
2022/01/07 00:18:11;;;;;;;;;12.75;10.25;;;;;;;;5011536;28;45275;-92
2022/01/07 00:20:37;;;;;;;;;14.75;14.00;;;;;;;;5011220;28;45106;-91
2022/01/07 00:23:02;;;;;;;;;11.25;11.00;;;;;;;;5011958;28;45151;-92
2022/01/07 00:25:27;;;;;;;;;9.00;7.00;;;;;;;;5009958;28;47404;-93
2022/01/07 00:27:53;;;;;;;;;13.00;10.33;;;;;;;;5011336;28;45493;-92
2022/01/07 00:30:19;;;;;;;;;14.50;11.00;;;;;;;;5011738;28;45133;-92
2022/01/07 00:32:45;;;;;;;;;10.00;9.00;;;;;;;;5011118;28;45236;-94
2022/01/07 00:35:12;;;;;;;;;11.00;9.25;;;;;;;;5011553;28;47145;-92
2022/01/07 00:37:37;;;;;;;;;9.00;9.00;;;;;;;;5011005;28;45534;-91
2022/01/07 00:40:07;;;;;;;;;6.67;6.67;;;;;;;;5010768;28;45177;-93
2022/01/07 00:42:33;;;;;;;;;10.75;10.75;;;;;;;;5007432;28;45139;-92
2022/01/07 00:44:58;;;;;;;;;11.00;10.25;;;;;;;;5010455;28;47089;-92
2022/01/07 00:47:24;;;;;;;;;13.67;11.33;;;;;;;;5011351;28;45014;-92
2022/01/07 00:49:50;;;;;;;;;10.00;9.00;;;;;;;;5011516;28;45122;-92
2022/01/07 00:52:15;;;;;;;;;9.00;7.50;;;;;;;;5011404;28;45118;-93
2022/01/07 00:54:41;;;;;;;;;10.25;9.50;;;;;;;;5010838;28;47526;-92
2022/01/07 00:57:06;;;;;;;;;11.00;11.00;;;;;;;;5009562;28;45321;-93
2022/01/07 00:59:31;;;;;;;;;10.67;9.67;;;;;;;;5011536;28;45232;-92
2022/01/07 01:01:56;;;;;;;;;9.75;9.00;;;;;;;;5011162;28;45147;-92
2022/01/07 01:04:22;;;;;;;;;16.33;14.00;;;;;;;;5011130;28;47624;-90
2022/01/07 01:06:47;;;;;;;;;10.33;10.33;;;;;;;;5010399;28;45972;-91
2022/01/07 01:09:12;;;;;;;;;10.00;9.00;;;;;;;;5011163;28;45351;-92
2022/01/07 01:11:38;;;;;;;;;10.75;10.00;;;;;;;;5010738;28;45338;-91
2022/01/07 01:14:04;;;;;;;;;7.50;7.00;;;;;;;;5010296;28;47230;-93
2022/01/07 01:16:30;;;;;;;;;13.50;11.00;;;;;;;;5010991;28;45593;-91
2022/01/07 01:18:55;;;;;;;;;11.00;11.00;;;;;;;;5010485;28;45249;-94
2022/01/07 01:21:20;;;;;;;;;13.75;11.00;;;;;;;;5010942;28;45196;-94
2022/01/07 01:23:46;;;;;;;;;10.00;9.00;;;;;;;;5010821;28;47458;-93
2022/01/07 01:26:12;;;;;;;;;11.00;10.00;;;;;;;;5010848;28;45065;-92
2022/01/07 01:28:37;;;;;;;;;11.00;10.75;;;;;;;;5010401;28;45119;-92
2022/01/07 01:31:03;;;;;;;;;14.25;10.25;;;;;;;;5010810;28;45145;-94
2022/01/07 01:33:28;;;;;;;;;10.75;10.50;;;;;;;;4997223;28;47599;-91
2022/01/07 01:35:54;;;;;;;;;10.25;9.00;;;;;;;;5009943;28;45126;-91
2022/01/07 01:38:19;;;;;;;;;11.00;10.00;;;;;;;;5010751;28;45218;-92
2022/01/07 01:40:44;;;;;;;;;10.33;10.00;;;;;;;;5009501;28;45184;-93
2022/01/07 01:43:09;;;;;;;;;7.75;7.25;;;;;;;;5010630;28;46792;-93
2022/01/07 01:45:35;;;;;;;;;12.75;9.00;;;;;;;;5010655;28;45182;-92
2022/01/07 01:48:00;;;;;;;;;9.67;9.33;;;;;;;;5010489;28;44979;-91
2022/01/07 01:50:25;;;;;;;;;9.67;9.67;;;;;;;;5006913;28;45196;-92
2022/01/07 01:52:53;;;;;;;;;11.00;9.50;;;;;;;;5007694;28;46908;-91
2022/01/07 01:55:19;;;;;;;;;9.75;9.00;;;;;;;;5007069;28;45803;-93
2022/01/07 01:57:45;;;;;;;;;10.50;9.00;;;;;;;;5011034;28;45428;-91
2022/01/07 02:00:11;;;;;;;;;2.00;0.00;;;;;;;;5011340;28;45278;-94
2022/01/07 02:02:36;;;;;;;;;10.00;9.25;;;;;;;;5013406;28;47278;-93
2022/01/07 02:05:03;;;;;;;;;10.00;7.00;;;;;;;;5013368;28;45143;-93
2022/01/07 02:07:28;;;;;;;;;10.00;10.00;;;;;;;;5014215;28;45081;-92
2022/01/07 02:09:54;;;;;;;;;10.75;10.50;;;;;;;;5013335;28;45061;-92
2022/01/07 02:12:20;;;;;;;;;13.75;10.25;;;;;;;;5013745;28;47442;-93
2022/01/07 02:14:53;;;;;;;;;13.50;11.00;;;;;;;;5013031;28;45466;-91
2022/01/07 02:17:19;;;;;;;;;10.25;9.25;;;;;;;;5013825;28;45110;-93
2022/01/07 02:19:44;;;;;;;;;11.00;10.75;;;;;;;;5013099;28;45132;-92
2022/01/07 02:22:12;;;;;;;;;10.00;9.25;;;;;;;;5013144;28;47973;-91
2022/01/07 02:24:37;;;;;;;;;10.25;10.00;;;;;;;;5013968;28;45666;-94
2022/01/07 02:27:08;;;;;;;;;11.00;11.00;;;;;;;;5013435;28;45329;-93
2022/01/07 02:29:33;;;;;;;;;10.75;10.50;;;;;;;;5013064;28;45269;-91
2022/01/07 02:31:58;;;;;;;;;10.67;9.67;;;;;;;;5006669;28;46946;-92
2022/01/07 02:34:24;;;;;;;;;11.00;9.33;;;;;;;;5012251;28;45220;-91
2022/01/07 02:36:49;;;;;;;;;11.00;11.00;;;;;;;;5012961;28;45275;-90
2022/01/07 02:39:14;;;;;;;;;10.00;9.00;;;;;;;;5009808;28;45377;-91
2022/01/07 02:41:40;;;;;;;;;12.00;10.00;;;;;;;;5009275;28;47346;-92
2022/01/07 02:44:05;;;;;;;;;10.67;10.67;;;;;;;;5009824;28;45313;-91
2022/01/07 02:46:30;;;;;;;;;7.00;7.00;;;;;;;;5009969;28;45016;-92
2022/01/07 02:48:58;;;;;;;;;11.00;10.00;;;;;;;;5009361;28;45386;-91
2022/01/07 02:51:23;;;;;;;;;10.50;10.25;;;;;;;;5009324;28;47431;-93
2022/01/07 02:53:48;;;;;;;;;9.67;9.00;;;;;;;;5009419;28;45173;-91
2022/01/07 02:56:14;;;;;;;;;6.00;6.00;;;;;;;;5009318;28;45137;-90
2022/01/07 02:58:39;;;;;;;;;12.25;11.00;;;;;;;;5007829;28;45519;-92
2022/01/07 03:01:04;;;;;;;;;10.00;9.00;;;;;;;;5006892;28;47233;-90
2022/01/07 03:03:33;;;;;;;;;10.00;9.75;;;;;;;;5009370;28;45204;-92
2022/01/07 03:05:58;;;;;;;;;10.25;8.50;;;;;;;;5008279;28;45081;-93
2022/01/07 03:08:23;;;;;;;;;7.00;7.00;;;;;;;;5010082;28;45134;-93
2022/01/07 03:10:49;;;;;;;;;7.00;6.00;;;;;;;;5008974;28;47815;-91
2022/01/07 03:13:14;;;;;;;;;6.75;5.75;;;;;;;;5009700;28;45129;-92
2022/01/07 03:15:39;;;;;;;;;9.00;8.25;;;;;;;;5001631;28;45345;-91
2022/01/07 03:18:06;;;;;;;;;7.00;7.00;;;;;;;;5005684;28;44954;-92
2022/01/07 03:20:37;;;;;;;;;7.00;6.75;;;;;;;;5000347;28;47311;-92
2022/01/07 03:23:03;;;;;;;;;7.00;7.00;;;;;;;;5006167;28;45594;-92
2022/01/07 03:25:28;;;;;;;;;7.75;7.75;;;;;;;;4990537;28;45392;-92
2022/01/07 03:27:54;;;;;;;;;6.33;6.00;;;;;;;;5006900;28;45238;-90
2022/01/07 03:30:19;;;;;;;;;5.00;5.00;;;;;;;;5009189;28;47231;-92
2022/01/07 03:32:44;;;;;;;;;7.00;6.50;;;;;;;;5005368;28;45432;-92
2022/01/07 03:35:11;;;;;;;;;7.00;7.00;;;;;;;;5009075;28;45268;-92
2022/01/07 03:37:37;;;;;;;;;6.50;6.25;;;;;;;;5008660;28;45207;-92
2022/01/07 03:40:03;;;;;;;;;9.25;6.25;;;;;;;;5007863;28;47216;-91
2022/01/07 03:42:28;;;;;;;;;6.50;6.25;;;;;;;;5009126;28;45132;-93
2022/01/07 03:44:53;;;;;;;;;11.00;7.67;;;;;;;;5009276;28;45089;-93
2022/01/07 03:47:19;;;;;;;;;8.33;7.00;;;;;;;;5007939;28;45137;-91
2022/01/07 03:49:44;;;;;;;;;6.67;6.00;;;;;;;;5007635;28;47325;-93
2022/01/07 03:52:09;;;;;;;;;6.33;5.33;;;;;;;;5008770;28;45261;-93
2022/01/07 03:54:35;;;;;;;;;5.67;5.67;;;;;;;;5008853;28;45097;-92
2022/01/07 03:57:00;;;;;;;;;7.00;7.00;;;;;;;;5009002;28;45231;-92
2022/01/07 03:59:26;;;;;;;;;7.00;6.00;;;;;;;;5005256;28;47405;-91
2022/01/07 04:01:51;;;;;;;;;8.50;7.00;;;;;;;;5008077;28;45220;-91
2022/01/07 04:04:16;;;;;;;;;7.00;7.00;;;;;;;;5008813;28;45593;-92
2022/01/07 04:06:44;;;;;;;;;9.25;8.25;;;;;;;;5008557;28;45287;-92
2022/01/07 04:09:09;;;;;;;;;8.00;7.50;;;;;;;;5008250;28;47175;-91
2022/01/07 04:11:35;;;;;;;;;6.67;6.67;;;;;;;;5008039;28;45203;-91
2022/01/07 04:14:00;;;;;;;;;8.33;6.67;;;;;;;;5008688;28;45240;-91
2022/01/07 04:16:25;;;;;;;;;7.00;7.00;;;;;;;;5008727;28;45359;-92
2022/01/07 04:18:51;;;;;;;;;6.00;6.00;;;;;;;;5007695;28;47326;-93
2022/01/07 04:21:16;;;;;;;;;7.75;7.00;;;;;;;;5008602;28;45160;-92
2022/01/07 04:23:41;;;;;;;;;5.00;5.00;;;;;;;;5008239;28;45185;-91
2022/01/07 04:26:06;;;;;;;;;8.75;7.75;;;;;;;;5007695;28;45267;-91
2022/01/07 04:28:32;;;;;;;;;7.00;7.00;;;;;;;;5008285;28;47566;-91
2022/01/07 04:30:57;;;;;;;;;6.50;6.25;;;;;;;;5007311;28;45042;-92
2022/01/07 04:33:26;;;;;;;;;6.00;6.00;;;;;;;;4991215;28;45087;-91
2022/01/07 04:35:53;;;;;;;;;5.00;5.00;;;;;;;;5006379;28;44955;-91
2022/01/07 04:38:18;;;;;;;;;5.00;5.00;;;;;;;;5008225;28;46807;-93
2022/01/07 04:40:43;;;;;;;;;10.00;6.50;;;;;;;;5009322;28;45213;-93
2022/01/07 04:43:09;;;;;;;;;9.75;8.50;;;;;;;;5011092;28;45256;-92
2022/01/07 04:45:35;;;;;;;;;6.75;6.75;;;;;;;;5011358;28;45232;-92
2022/01/07 04:48:00;;;;;;;;;2.25;2.25;;;;;;;;5001009;28;47315;-92
2022/01/07 04:50:25;;;;;;;;;6.25;6.00;;;;;;;;5006692;28;45185;-92
2022/01/07 04:52:54;;;;;;;;;6.75;6.50;;;;;;;;5011514;28;45096;-91
2022/01/07 04:55:29;;;;;;;;;5.25;5.00;;;;;;;;5011373;28;45158;-92
2022/01/07 04:57:54;;;;;;;;;9.00;7.00;;;;;;;;5010136;28;47325;-92
2022/01/07 05:00:20;;;;;;;;;5.00;3.00;;;;;;;;5011556;28;45050;-92
2022/01/07 05:02:46;;;;;;;;;6.00;6.00;;;;;;;;5011005;28;45225;-92
2022/01/07 05:05:11;;;;;;;;;5.00;3.50;;;;;;;;5011404;28;45121;-90
2022/01/07 05:07:37;;;;;;;;;6.25;5.75;;;;;;;;5009799;28;47137;-91
2022/01/07 05:10:13;;;;;;;;;3.00;3.00;;;;;;;;5011100;28;45276;-93
2022/01/07 05:12:39;;;;;;;;;5.75;5.25;;;;;;;;5010907;28;45258;-91
2022/01/07 05:15:05;;;;;;;;;4.50;3.00;;;;;;;;5010977;28;45578;-93
2022/01/07 05:17:30;;;;;;;;;6.00;5.50;;;;;;;;5009281;28;47104;-92
2022/01/07 05:20:04;;;;;;;;;5.00;5.00;;;;;;;;5011017;28;45255;-91
2022/01/07 05:25:37;;;;;;;;;5.00;4.50;;;;;;;;4969908;28;45400;-91
2022/01/07 05:28:05;;;;;;;;;4.75;4.75;;;;;;;;4993822;28;47145;-91
2022/01/07 05:30:30;;;;;;;;;2.25;2.00;;;;;;;;4982554;28;45369;-90
2022/01/07 05:32:55;;;;;;;;;5.00;5.00;;;;;;;;4999811;28;45467;-92
2022/01/07 05:35:28;;;;;;;;;6.00;5.25;;;;;;;;5001778;28;45525;-92
2022/01/07 05:37:53;;;;;;;;;3.50;3.00;;;;;;;;5002519;28;46859;-92
2022/01/07 05:40:24;;;;;;;;;6.67;5.00;;;;;;;;5003700;28;45439;-92
2022/01/07 05:42:55;;;;;;;;;5.00;4.00;;;;;;;;5012784;28;45537;-90
2022/01/07 05:45:20;;;;;;;;;5.00;4.50;;;;;;;;5008366;28;45633;-91
2022/01/07 05:47:52;;;;;;;;;5.25;4.00;;;;;;;;5008160;28;47087;-90
2022/01/07 05:50:22;;;;;;;;;6.00;5.00;;;;;;;;4999173;28;45511;-92
2022/01/07 05:52:50;;;;;;;;;5.25;5.00;;;;;;;;4999028;28;45615;-91
2022/01/07 05:55:16;;;;;;;;;6.75;6.75;;;;;;;;5000587;28;45896;-91
2022/01/07 05:57:41;;;;;;;;;0.75;0.75;;;;;;;;5000972;28;47275;-90
2022/01/07 06:00:26;;;;;;;;;6.75;5.50;;;;;;;;5000987;28;45858;-90
2022/01/07 06:02:51;;;;;;;;;3.25;2.75;;;;;;;;4997222;28;45720;-91
2022/01/07 06:05:17;;;;;;;;;5.00;5.00;;;;;;;;5000890;28;45476;-92
2022/01/07 06:07:42;;;;;;;;;6.00;5.00;;;;;;;;5007313;28;46916;-92
2022/01/07 06:10:19;;;;;;;;;5.50;5.00;;;;;;;;5008487;28;45199;-91
2022/01/07 06:12:47;;;;;;;;;6.25;6.25;;;;;;;;5003359;28;45726;-91
2022/01/07 06:15:13;;;;;;;;;4.50;4.50;;;;;;;;5000062;28;45325;-91
2022/01/07 06:17:38;;;;;;;;;5.00;4.50;;;;;;;;4993241;28;47802;-92
2022/01/07 06:20:04;;;;;;;;;9.50;5.25;;;;;;;;4999651;28;45428;-91
2022/01/07 06:22:30;;;;;;;;;5.25;5.25;;;;;;;;5001469;28;45500;-91
2022/01/07 06:25:01;;;;;;;;;6.25;5.25;;;;;;;;5004596;28;45422;-92
2022/01/07 06:27:26;;;;;;;;;5.75;3.00;;;;;;;;5004436;28;48316;-91
2022/01/07 06:29:56;;;;;;;;;7.00;5.00;;;;;;;;4980710;28;45459;-91
2022/01/07 06:32:22;;;;;;;;;4.75;4.50;;;;;;;;4994950;28;45584;-91
2022/01/07 06:34:57;;;;;;;;;5.75;5.00;;;;;;;;5006340;28;45446;-91
2022/01/07 06:37:22;;;;;;;;;6.00;5.50;;;;;;;;5009478;28;46864;-91
2022/01/07 06:39:48;;;;;;;;;5.00;5.00;;;;;;;;5010653;28;45295;-91
2022/01/07 06:42:16;;;;;;;;;9.00;6.00;;;;;;;;5000413;28;45548;-91
2022/01/07 06:44:44;;;;;;;;;5.25;5.25;;;;;;;;4999173;28;45368;-90
2022/01/07 06:47:15;;;;;;;;;6.75;6.25;;;;;;;;4996511;28;48039;-91
2022/01/07 06:49:44;;;;;;;;;6.75;6.00;;;;;;;;4994524;28;45750;-91
2022/01/07 06:52:09;;;;;;;;;5.50;5.25;;;;;;;;4979521;28;45296;-91
2022/01/07 06:54:37;;;;;;;;;7.50;5.75;;;;;;;;5011568;28;45214;-92
2022/01/07 06:57:03;;;;;;;;;6.50;6.00;;;;;;;;5013166;28;47639;-92
2022/01/07 06:59:28;;;;;;;;;6.25;6.00;;;;;;;;5013240;28;45166;-92
2022/01/07 07:01:56;;;;;;;;;5.00;5.00;;;;;;;;5013184;28;45043;-92
2022/01/07 07:04:21;;;;;;;;;10.00;6.50;;;;;;;;5007099;28;45159;-93
2022/01/07 07:06:47;;;;;;;;;4.25;4.25;;;;;;;;5000297;28;47162;-94
2022/01/07 07:09:17;;;;;;;;;5.00;5.00;;;;;;;;4995145;28;45694;-91
2022/01/07 07:12:18;;;;;;;;;7.00;6.00;;;;;;;;4994786;28;45495;-93
2022/01/07 07:14:36;;;;;;;;;4.00;4.00;;;;;;;;5006356;28;45411;-94
2022/01/07 07:17:09;;;;;;;;;6.00;6.00;;;;;;;;4994164;28;48137;-93
2022/01/07 07:19:40;;;;;;;;;6.25;6.25;;;;;;;;4994730;28;45837;-92
2022/01/07 07:25:33;;;;;;;;;6.00;5.00;;;;;;;;4950643;28;45644;-92
2022/01/07 07:28:09;;;;;;;;;5.75;5.25;;;;;;;;4951094;28;48085;-95
2022/01/07 07:30:40;;;;;;;;;8.00;7.00;;;;;;;;4989373;28;45482;-94
2022/01/07 07:33:31;;;;;;;;;4.50;3.50;;;;;;;;4989946;28;45455;-90
2022/01/07 07:38:43;;;;;;;;;9.00;7.00;;;;;;;;5011685;28;45439;-90
2022/01/07 07:41:10;;;;;;;;;4.50;3.50;;;;;;;;5002515;28;45852;-92
2022/01/07 07:43:36;;;;;;;;;6.25;6.25;;;;;;;;4989422;28;45513;-93
2022/01/07 07:46:01;;;;;;;;;5.50;3.50;;;;;;;;5002515;28;45377;-90
2022/01/07 07:48:27;;;;;;;;;6.50;5.50;;;;;;;;5012213;28;47521;-90
2022/01/07 07:50:52;;;;;;;;;7.00;6.00;;;;;;;;5006376;28;45221;-91
2022/01/07 07:53:18;;;;;;;;;4.75;4.75;;;;;;;;5006327;28;45113;-94
2022/01/07 07:55:44;;;;;;;;;7.00;6.00;;;;;;;;5007823;28;45107;-90
2022/01/07 07:58:10;;;;;;;;;6.00;6.00;;;;;;;;5014422;28;47391;-89
2022/01/07 08:00:35;;;;;;;;;6.33;6.00;;;;;;;;5008758;28;45378;-90
2022/01/07 08:03:01;;;;;;;;;5.00;5.00;;;;;;;;4996941;28;45427;-90
2022/01/07 08:05:26;;;;;;;;;7.25;6.50;;;;;;;;4999146;28;45484;-90
2022/01/07 08:07:51;;;;;;;;;6.00;6.00;;;;;;;;5003720;28;47196;-90
2022/01/07 08:10:23;;;;;;;;;6.00;5.00;;;;;;;;4997957;28;45462;-91
2022/01/07 08:13:03;;;;;;;;;5.00;5.00;;;;;;;;5006221;28;45392;-90
2022/01/07 08:18:12;;;;;;;;;4.50;4.50;;;;;;;;5020974;28;45424;-90
2022/01/07 08:20:38;;;;;;;;;7.33;7.00;;;;;;;;5004696;28;45361;-92
2022/01/07 08:23:03;;;;;;;;;5.75;5.50;;;;;;;;5005095;28;45290;-94
2022/01/07 08:25:29;;;;;;;;;3.00;3.00;;;;;;;;5010367;28;45070;-89
2022/01/07 08:27:56;;;;;;;;;6.00;6.00;;;;;;;;5002495;28;47335;-91
2022/01/07 08:30:25;;;;;;;;;3.00;3.00;;;;;;;;4997868;28;45757;-89
2022/01/07 08:35:40;;;;;;;;;5.75;5.00;;;;;;;;4993754;28;45598;-90
2022/01/07 08:38:05;;;;;;;;;6.00;5.00;;;;;;;;4980837;28;47292;-90
2022/01/07 08:40:31;;;;;;;;;5.00;3.00;;;;;;;;4980124;28;45694;-93
2022/01/07 08:42:56;;;;;;;;;6.00;5.00;;;;;;;;4978745;28;45393;-90
2022/01/07 08:45:21;;;;;;;;;6.00;3.67;;;;;;;;4981590;28;45293;-91
2022/01/07 08:47:47;;;;;;;;;5.75;5.00;;;;;;;;4976035;28;47346;-93
2022/01/07 08:50:12;;;;;;;;;5.00;3.00;;;;;;;;4976150;28;46083;-94
2022/01/07 08:52:37;;;;;;;;;6.75;6.00;;;;;;;;4974505;28;46081;-89
2022/01/07 08:55:03;;;;;;;;;6.00;5.75;;;;;;;;4973832;28;45567;-94
2022/01/07 08:57:28;;;;;;;;;5.00;5.00;;;;;;;;4974060;28;47285;-90
2022/01/07 08:59:53;;;;;;;;;3.00;3.00;;;;;;;;4973039;28;45467;-92
2022/01/07 09:02:19;;;;;;;;;5.67;5.67;;;;;;;;4974470;28;45352;-92
2022/01/07 09:04:44;;;;;;;;;3.75;3.00;;;;;;;;4972644;28;45540;-92
2022/01/07 09:07:09;;;;;;;;;4.33;4.33;;;;;;;;4973377;28;47089;-91
2022/01/07 09:09:35;;;;;;;;;3.50;3.25;;;;;;;;4973718;28;45546;-91
2022/01/07 09:12:00;;;;;;;;;7.75;6.00;;;;;;;;4973845;28;45578;-92
2022/01/07 09:14:25;;;;;;;;;6.00;5.00;;;;;;;;4973873;28;45417;-93
2022/01/07 09:16:51;;;;;;;;;4.25;4.25;;;;;;;;4973959;28;48165;-95
2022/01/07 09:19:16;;;;;;;;;3.75;3.75;;;;;;;;4974298;28;46246;-92
2022/01/07 09:21:41;;;;;;;;;5.00;3.00;;;;;;;;4972328;28;45389;-90
2022/01/07 09:24:07;;;;;;;;;3.00;3.00;;;;;;;;4973708;28;45509;-91
2022/01/07 09:26:33;;;;;;;;;6.25;5.50;;;;;;;;4972998;28;47156;-93
2022/01/07 09:28:59;;;;;;;;;5.00;4.75;;;;;;;;4973134;28;45622;-93
2022/01/07 09:31:24;;;;;;;;;2.75;2.75;;;;;;;;4975505;28;45196;-91
2022/01/07 09:33:50;;;;;;;;;3.00;3.00;;;;;;;;4993105;28;45506;-95
2022/01/07 09:36:15;;;;;;;;;5.50;2.00;;;;;;;;4992733;28;48168;-92
2022/01/07 09:38:40;;;;;;;;;3.00;2.00;;;;;;;;4992230;28;45711;-93
2022/01/07 09:41:08;;;;;;;;;5.67;5.00;;;;;;;;4992726;28;45332;-92
2022/01/07 09:43:33;;;;;;;;;5.00;4.25;;;;;;;;4992727;28;45467;-92
2022/01/07 09:45:59;;;;;;;;;5.00;3.00;;;;;;;;4992930;28;47085;-93
2022/01/07 09:48:24;;;;;;;;;6.00;6.00;;;;;;;;4993190;28;45563;-95
2022/01/07 09:50:50;;;;;;;;;5.75;4.50;;;;;;;;4992779;28;45741;-96
2022/01/07 09:53:15;;;;;;;;;6.25;2.75;;;;;;;;4993129;28;45637;-95
2022/01/07 09:55:42;;;;;;;;;4.25;4.25;;;;;;;;4992943;28;47186;-94
2022/01/07 09:58:08;;;;;;;;;8.00;6.25;;;;;;;;4992960;28;45756;-93
2022/01/07 10:00:36;;;;;;;;;6.75;6.00;;;;;;;;4993767;28;45616;-92
2022/01/07 10:03:03;;;;;;;;;8.50;8.00;;;;;;;;4980222;28;45392;-92
2022/01/07 10:05:38;;;;;;;;;7.00;6.00;;;;;;;;5001754;22;48018;-92
2022/01/07 10:08:26;;;;;;;;;8.00;7.00;;;;;;;;5047440;28;45423;-91
2022/01/07 10:11:21;;;;;;;;;;;;;;;;;;;;;
2022/01/07 10:13:48;;;;;;;;;6.00;6.00;;;;;;;;5065758;28;69813;-91
2022/01/07 10:16:14;;;;;;;;;7.00;7.00;;;;;;;;5069134;28;47026;-91
2022/01/07 10:18:39;;;;;;;;;9.33;8.00;;;;;;;;5070782;28;45251;-91
2022/01/07 10:21:08;;;;;;;;;7.00;7.00;;;;;;;;5070554;28;45040;-91
2022/01/07 10:23:33;;;;;;;;;8.00;7.00;;;;;;;;5070226;28;45227;-92
2022/01/07 10:25:58;;;;;;;;;8.00;8.00;;;;;;;;5070049;28;47250;-90
2022/01/07 10:28:39;;;;;;;;;6.25;6.25;;;;;;;;5069191;28;45163;-92
2022/01/07 10:31:06;;;;;;;;;6.75;6.75;;;;;;;;5070026;28;45393;-94
2022/01/07 10:33:35;;;;;;;;;4.75;3.50;;;;;;;;5059736;28;45566;-95
2022/01/07 10:36:07;;;;;;;;;6.75;6.75;;;;;;;;5055614;28;47057;-96
2022/01/07 10:38:35;;;;;;;;;4.50;4.25;;;;;;;;5054767;28;45706;-94
2022/01/07 10:41:02;;;;;;;;;3.00;3.00;;;;;;;;5053994;28;45468;-94
2022/01/07 10:43:32;;;;;;;;;6.25;4.25;;;;;;;;5053892;28;45403;-93
2022/01/07 10:45:59;;;;;;;;;2.00;2.00;;;;;;;;5054018;28;48117;-93
2022/01/07 10:48:37;;;;;;;;;3.00;2.00;;;;;;;;5053498;28;45470;-92
2022/01/07 10:51:05;;;;;;;;;2.00;2.00;;;;;;;;5052450;28;45884;-93
2022/01/07 10:53:30;;;;;;;;;3.25;3.25;;;;;;;;5052660;28;45510;-91
2022/01/07 10:55:55;;;;;;;;;2.00;2.00;;;;;;;;5052729;28;47641;-92
2022/01/07 10:58:21;;;;;;;;;2.67;2.00;;;;;;;;5052745;28;45353;-92
2022/01/07 11:00:46;;;;;;;;;2.00;2.00;;;;;;;;5053513;28;45472;-92
2022/01/07 11:03:11;;;;;;;;;1.33;1.33;;;;;;;;5053879;28;45442;-94
2022/01/07 11:05:36;;;;;;;;;1.33;1.33;;;;;;;;5052383;28;47962;-94
2022/01/07 11:08:02;;;;;;;;;1.00;1.00;;;;;;;;5053073;28;45317;-94
2022/01/07 11:10:29;;;;;;;;;2.25;2.25;;;;;;;;5053964;28;45359;-94
2022/01/07 11:12:55;;;;;;;;;2.00;2.00;;;;;;;;5052984;28;45123;-95
2022/01/07 11:15:20;;;;;;;;;0.75;0.00;;;;;;;;5053696;28;48337;-93
2022/01/07 11:17:46;;;;;;;;;3.00;2.00;;;;;;;;5053277;28;45404;-94
2022/01/07 11:20:14;;;;;;;;;1.67;1.67;;;;;;;;5053083;28;45671;-95
2022/01/07 11:22:42;;;;;;;;;1.25;0.00;;;;;;;;5052157;28;45636;-95
2022/01/07 11:25:08;;;;;;;;;0.50;0.50;;;;;;;;5054028;28;48475;-92
2022/01/07 11:27:45;;;;;;;;;2.00;2.00;;;;;;;;5052735;28;45592;-95
2022/01/07 11:30:12;;;;;;;;;1.00;1.00;;;;;;;;5052705;28;45416;-94
2022/01/07 11:32:38;;;;;;;;;6.50;4.00;;;;;;;;5053604;28;45428;-96
2022/01/07 11:35:19;;;;;;;;;1.75;1.50;;;;;;;;5052504;28;47210;-92
2022/01/07 11:37:44;;;;;;;;;2.00;1.00;;;;;;;;5054610;28;45501;-93
2022/01/07 11:40:25;;;;;;;;;1.00;1.00;;;;;;;;5053869;28;45563;-92
2022/01/07 11:42:51;;;;;;;;;6.50;4.50;;;;;;;;5052719;28;45484;-95
2022/01/07 11:45:34;;;;;;;;;1.00;1.00;;;;;;;;5053177;28;47184;-96
2022/01/07 11:48:10;;;;;;;;;2.50;2.00;;;;;;;;5052667;28;45815;-92
2022/01/07 11:50:54;;;;;;;;;6.25;3.00;;;;;;;;5053963;28;45357;-93
2022/01/07 11:53:20;;;;;;;;;1.25;1.00;;;;;;;;5053332;28;45465;-92
2022/01/07 11:55:45;;;;;;;;;2.50;2.50;;;;;;;;5053982;28;47127;-94
2022/01/07 11:58:11;;;;;;;;;1.00;0.00;;;;;;;;5053709;28;45701;-94
2022/01/07 12:00:49;;;;;;;;;2.00;1.00;;;;;;;;5053567;28;45533;-92
2022/01/07 12:03:33;;;;;;;;;1.00;1.00;;;;;;;;5052375;28;45482;-96
2022/01/07 12:05:58;;;;;;;;;2.00;1.00;;;;;;;;5054305;28;47198;-92
2022/01/07 12:08:37;;;;;;;;;1.50;1.00;;;;;;;;5058396;28;45469;-92
2022/01/07 12:11:09;;;;;;;;;2.00;1.00;;;;;;;;5054057;28;45611;-95
2022/01/07 12:13:39;;;;;;;;;1.50;1.50;;;;;;;;5055587;28;45313;-96
2022/01/07 12:16:07;;;;;;;;;1.00;1.00;;;;;;;;5054502;28;47605;-96
2022/01/07 12:18:33;;;;;;;;;1.75;1.75;;;;;;;;5053889;28;46073;-94
2022/01/07 12:20:58;;;;;;;;;1.50;1.00;;;;;;;;5052590;28;45598;-92
2022/01/07 12:23:23;;;;;;;;;2.33;1.00;;;;;;;;5053154;28;45321;-91
2022/01/07 12:25:50;;;;;;;;;1.50;1.50;;;;;;;;5052709;28;47080;-95
2022/01/07 12:28:15;;;;;;;;;2.00;2.00;;;;;;;;5053934;28;45291;-91
2022/01/07 12:30:41;;;;;;;;;1.00;1.00;;;;;;;;5052954;28;45531;-95
2022/01/07 12:33:07;;;;;;;;;3.25;2.75;;;;;;;;5037254;28;44879;-92
2022/01/07 12:35:32;;;;;;;;;1.75;1.75;;;;;;;;5032581;28;48021;-95
2022/01/07 12:38:08;;;;;;;;;1.00;1.00;;;;;;;;5032663;28;45551;-96
2022/01/07 12:40:36;;;;;;;;;1.25;1.00;;;;;;;;5033972;28;45487;-91
2022/01/07 12:43:01;;;;;;;;;3.50;2.00;;;;;;;;5034173;28;45572;-94
2022/01/07 12:45:27;;;;;;;;;1.75;1.50;;;;;;;;5034731;28;46906;-95
2022/01/07 12:47:55;;;;;;;;;3.50;2.00;;;;;;;;5039019;28;45450;-92
2022/01/07 12:50:24;;;;;;;;;1.00;1.00;;;;;;;;5060322;28;45109;-93
2022/01/07 12:53:33;;;;;;;;;3.00;2.00;;;;;;;;5050678;28;45519;-93
2022/01/07 12:56:23;;;;;;;;;2.00;2.00;;;;;;;;5034768;28;47259;-91
2022/01/07 12:58:55;;;;;;;;;1.00;0.75;;;;;;;;5052180;28;45724;-93
2022/01/07 13:01:26;;;;;;;;;1.00;1.00;;;;;;;;5051328;28;45383;-93
2022/01/07 13:04:33;;;;;;;;;;;;;;;;;;;;;
2022/01/07 13:06:59;;;;;;;;;1.75;1.75;;;;;;;;5046165;28;75347;-94
2022/01/07 13:09:26;;;;;;;;;1.75;1.75;;;;;;;;5049483;28;45631;-93
2022/01/07 13:14:57;;;;;;;;;2.50;2.50;;;;;;;;5041420;28;45529;-92
2022/01/07 13:17:23;;;;;;;;;2.00;1.00;;;;;;;;5049811;28;46974;-94
2022/01/07 13:19:50;;;;;;;;;1.00;1.00;;;;;;;;5049341;28;45516;-94
2022/01/07 13:22:26;;;;;;;;;1.50;1.00;;;;;;;;5049551;28;45299;-92
2022/01/07 13:24:57;;;;;;;;;0.00;0.00;;;;;;;;5048587;28;45513;-91
2022/01/07 13:27:23;;;;;;;;;2.00;1.00;;;;;;;;5057004;28;48232;-92
2022/01/07 13:29:58;;;;;;;;;3.00;2.00;;;;;;;;5061766;28;45262;-93
2022/01/07 13:32:29;;;;;;;;;0.75;0.00;;;;;;;;5061289;28;45398;-93
2022/01/07 13:35:04;;;;;;;;;0.75;0.00;;;;;;;;5052300;28;45475;-92
2022/01/07 13:37:29;;;;;;;;;3.50;2.00;;;;;;;;5045175;28;47318;-91
2022/01/07 13:39:59;;;;;;;;;2.67;1.67;;;;;;;;5054144;28;45445;-89
2022/01/07 13:43:05;;;;;;;;;1.75;1.00;;;;;;;;5053204;28;45466;-91
2022/01/07 13:48:36;;;;;;;;;2.50;1.00;;;;;;;;5021769;28;45868;-92
2022/01/07 13:51:11;;;;;;;;;2.75;1.00;;;;;;;;4999065;28;45686;-94
2022/01/07 13:53:42;;;;;;;;;1.00;1.00;;;;;;;;4999788;28;45760;-92
2022/01/07 13:56:19;;;;;;;;;0.00;0.00;;;;;;;;5069159;28;45259;-94
2022/01/07 13:59:17;;;;;;;;;0.75;0.75;;;;;;;;5069580;28;46800;-93
2022/01/07 14:02:04;;;;;;;;;2.25;2.00;;;;;;;;5023660;28;45220;-94
2022/01/07 14:04:51;;;;;;;;;2.50;2.00;;;;;;;;5053228;28;45190;-93
2022/01/07 14:07:46;;;;;;;;;;;;;;;;;;;;;
2022/01/07 14:10:21;;;;;;;;;0.00;0.00;;;;;;;;5070591;28;74649;-93
2022/01/07 14:13:08;;;;;;;;;0.50;0.50;;;;;;;;5068996;28;45157;-95
2022/01/07 14:15:49;;;;;;;;;0.50;0.50;;;;;;;;5067692;28;44934;-91
2022/01/07 14:18:29;;;;;;;;;2.00;0.00;;;;;;;;5070430;28;45348;-94
2022/01/07 14:21:27;;;;;;;;;1.00;1.00;;;;;;;;5062559;28;47501;-92
2022/01/07 14:24:17;;;;;;;;;;;;;;;;;;;;;
2022/01/07 14:26:52;;;;;;;;;0.75;0.75;;;;;;;;5069458;28;67567;-93
2022/01/07 14:29:29;;;;;;;;;1.00;0.00;;;;;;;;5070296;28;45574;-94
2022/01/07 14:32:21;;;;;;;;;0.75;0.75;;;;;;;;5061255;28;47356;-94
2022/01/07 14:34:59;;;;;;;;;;;;;;;;;;;;;
2022/01/07 14:37:41;;;;;;;;;2.00;1.50;;;;;;;;5070595;28;67413;-92
2022/01/07 14:40:17;;;;;;;;;2.00;1.00;;;;;;;;5066617;28;45372;-93
2022/01/07 14:42:42;;;;;;;;;0.00;0.00;;;;;;;;5053447;28;47620;-91
2022/01/07 14:45:13;;;;;;;;;1.67;1.33;;;;;;;;5052384;28;45466;-93
2022/01/07 14:47:48;;;;;;;;;2.75;1.00;;;;;;;;5055711;28;45521;-93
2022/01/07 14:50:14;;;;;;;;;1.00;1.00;;;;;;;;5058824;28;45155;-94
2022/01/07 14:52:43;;;;;;;;;2.00;2.00;;;;;;;;5057578;28;46891;-95
2022/01/07 14:55:16;;;;;;;;;2.50;2.00;;;;;;;;5067072;28;45191;-92
2022/01/07 14:57:41;;;;;;;;;2.00;2.00;;;;;;;;5069799;28;45254;-92
2022/01/07 15:00:11;;;;;;;;;3.00;2.00;;;;;;;;5068584;28;45171;-94
2022/01/07 15:02:39;;;;;;;;;5.00;3.50;;;;;;;;5066742;28;47013;-94
2022/01/07 15:05:05;;;;;;;;;6.50;3.75;;;;;;;;5069560;28;45205;-91
2022/01/07 15:07:31;;;;;;;;;1.00;1.00;;;;;;;;5056806;28;45514;-94
2022/01/07 15:09:56;;;;;;;;;2.00;1.00;;;;;;;;5051441;28;45582;-92
2022/01/07 15:12:25;;;;;;;;;0.50;0.50;;;;;;;;5052291;28;47044;-94